sensor_id;sensor_type;location;lat;lon;timestamp;temperature;humidity
25570;DHT22;17955;45.542;9.238;2022-08-11T00:01:45;26.20;71.70
25570;DHT22;17955;45.542;9.238;2022-08-11T00:04:13;26.10;71.60
25570;DHT22;17955;45.542;9.238;2022-08-11T00:06:41;26.10;71.30
25570;DHT22;17955;45.542;9.238;2022-08-11T00:09:11;26.20;71.30
25570;DHT22;17955;45.542;9.238;2022-08-11T00:11:40;25.60;70.70
25570;DHT22;17955;45.542;9.238;2022-08-11T00:14:16;26.10;71.00
25570;DHT22;17955;45.542;9.238;2022-08-11T00:16:52;26.10;71.40
25570;DHT22;17955;45.542;9.238;2022-08-11T00:19:22;26.00;72.30
25570;DHT22;17955;45.542;9.238;2022-08-11T00:21:50;26.10;72.00
25570;DHT22;17955;45.542;9.238;2022-08-11T00:24:17;25.60;88.40
25570;DHT22;17955;45.542;9.238;2022-08-11T00:26:49;25.90;71.70
25570;DHT22;17955;45.542;9.238;2022-08-11T00:29:18;25.90;71.40
25570;DHT22;17955;45.542;9.238;2022-08-11T00:31:49;25.70;71.30
25570;DHT22;17955;45.542;9.238;2022-08-11T00:34:20;25.70;72.00
25570;DHT22;17955;45.542;9.238;2022-08-11T00:36:51;25.80;71.60
25570;DHT22;17955;45.542;9.238;2022-08-11T00:39:21;25.80;71.70
25570;DHT22;17955;45.542;9.238;2022-08-11T00:41:59;25.40;71.90
25570;DHT22;17955;45.542;9.238;2022-08-11T00:44:47;25.60;73.20
25570;DHT22;17955;45.542;9.238;2022-08-11T00:47:26;25.90;73.70
25570;DHT22;17955;45.542;9.238;2022-08-11T00:50:10;25.40;73.00
25570;DHT22;17955;45.542;9.238;2022-08-11T00:53:02;25.80;73.40
25570;DHT22;17955;45.542;9.238;2022-08-11T00:55:55;25.40;73.30
25570;DHT22;17955;45.542;9.238;2022-08-11T01:01:50;25.60;71.90
25570;DHT22;17955;45.542;9.238;2022-08-11T01:07:29;25.60;73.60
25570;DHT22;17955;45.542;9.238;2022-08-11T01:10:13;25.20;90.50
25570;DHT22;17955;45.542;9.238;2022-08-11T01:12:55;25.40;77.20
25570;DHT22;17955;45.542;9.238;2022-08-11T01:15:50;25.50;77.00
25570;DHT22;17955;45.542;9.238;2022-08-11T01:24:44;25.10;75.20
25570;DHT22;17955;45.542;9.238;2022-08-11T01:30:54;23.60;99.90
25570;DHT22;17955;45.542;9.238;2022-08-11T01:36:56;23.70;99.90
25570;DHT22;17955;45.542;9.238;2022-08-11T01:39:47;24.30;99.90
25570;DHT22;17955;45.542;9.238;2022-08-11T01:45:46;24.60;99.90
25570;DHT22;17955;45.542;9.238;2022-08-11T01:48:21;24.50;99.90
25570;DHT22;17955;45.542;9.238;2022-08-11T01:51:07;24.70;99.90
25570;DHT22;17955;45.542;9.238;2022-08-11T01:53:50;24.70;99.90
25570;DHT22;17955;45.542;9.238;2022-08-11T01:56:41;24.80;99.90
25570;DHT22;17955;45.542;9.238;2022-08-11T01:59:17;24.70;99.90
25570;DHT22;17955;45.542;9.238;2022-08-11T02:01:53;24.80;99.90
25570;DHT22;17955;45.542;9.238;2022-08-11T02:04:28;24.60;99.90
25570;DHT22;17955;45.542;9.238;2022-08-11T02:07:02;24.60;99.90
25570;DHT22;17955;45.542;9.238;2022-08-11T02:10:02;24.70;99.90
25570;DHT22;17955;45.542;9.238;2022-08-11T02:12:53;24.80;99.90
25570;DHT22;17955;45.542;9.238;2022-08-11T02:15:27;24.70;99.90
25570;DHT22;17955;45.542;9.238;2022-08-11T02:18:06;24.80;99.90
25570;DHT22;17955;45.542;9.238;2022-08-11T02:20:43;24.80;99.90
25570;DHT22;17955;45.542;9.238;2022-08-11T02:23:31;24.70;99.90
25570;DHT22;17955;45.542;9.238;2022-08-11T02:26:19;24.70;99.90
25570;DHT22;17955;45.542;9.238;2022-08-11T02:28:58;24.50;99.90
25570;DHT22;17955;45.542;9.238;2022-08-11T02:31:39;24.60;99.90
25570;DHT22;17955;45.542;9.238;2022-08-11T02:34:34;24.60;99.90
25570;DHT22;17955;45.542;9.238;2022-08-11T02:37:13;24.60;99.90
25570;DHT22;17955;45.542;9.238;2022-08-11T02:39:50;24.60;99.90
25570;DHT22;17955;45.542;9.238;2022-08-11T02:42:28;24.40;99.90
25570;DHT22;17955;45.542;9.238;2022-08-11T02:45:15;24.40;99.90
25570;DHT22;17955;45.542;9.238;2022-08-11T02:47:52;24.40;99.90
25570;DHT22;17955;45.542;9.238;2022-08-11T02:50:37;24.50;99.90
25570;DHT22;17955;45.542;9.238;2022-08-11T02:53:10;24.50;99.90
25570;DHT22;17955;45.542;9.238;2022-08-11T02:55:49;24.30;99.90
25570;DHT22;17955;45.542;9.238;2022-08-11T02:58:29;24.50;99.90
25570;DHT22;17955;45.542;9.238;2022-08-11T03:01:07;24.60;99.90
25570;DHT22;17955;45.542;9.238;2022-08-11T03:03:48;24.70;99.90
25570;DHT22;17955;45.542;9.238;2022-08-11T03:06:26;24.40;99.90
25570;DHT22;17955;45.542;9.238;2022-08-11T03:09:02;24.50;99.90
25570;DHT22;17955;45.542;9.238;2022-08-11T03:11:41;24.50;99.90
25570;DHT22;17955;45.542;9.238;2022-08-11T03:14:36;24.40;99.90
25570;DHT22;17955;45.542;9.238;2022-08-11T03:17:27;24.40;99.90
25570;DHT22;17955;45.542;9.238;2022-08-11T03:20:09;24.40;99.90
25570;DHT22;17955;45.542;9.238;2022-08-11T03:22:50;24.60;99.90
25570;DHT22;17955;45.542;9.238;2022-08-11T03:25:26;24.50;99.90
25570;DHT22;17955;45.542;9.238;2022-08-11T03:28:03;24.40;99.90
25570;DHT22;17955;45.542;9.238;2022-08-11T03:30:45;24.50;99.90
25570;DHT22;17955;45.542;9.238;2022-08-11T03:33:24;24.80;99.90
25570;DHT22;17955;45.542;9.238;2022-08-11T03:36:22;26.30;99.90
25570;DHT22;17955;45.542;9.238;2022-08-11T03:39:09;24.50;99.90
25570;DHT22;17955;45.542;9.238;2022-08-11T03:41:51;24.30;99.90
25570;DHT22;17955;45.542;9.238;2022-08-11T03:44:33;24.40;99.90
25570;DHT22;17955;45.542;9.238;2022-08-11T03:47:21;24.30;99.90
25570;DHT22;17955;45.542;9.238;2022-08-11T03:50:05;24.30;99.90
25570;DHT22;17955;45.542;9.238;2022-08-11T03:52:52;24.10;99.90
25570;DHT22;17955;45.542;9.238;2022-08-11T03:55:36;24.40;99.90
25570;DHT22;17955;45.542;9.238;2022-08-11T03:58:30;24.30;99.90
25570;DHT22;17955;45.542;9.238;2022-08-11T04:01:30;24.30;99.90
25570;DHT22;17955;45.542;9.238;2022-08-11T04:04:36;24.20;99.90
25570;DHT22;17955;45.542;9.238;2022-08-11T04:07:41;24.20;99.90
25570;DHT22;17955;45.542;9.238;2022-08-11T04:10:33;24.20;99.90
25570;DHT22;17955;45.542;9.238;2022-08-11T04:13:39;24.20;99.90
25570;DHT22;17955;45.542;9.238;2022-08-11T04:16:28;24.30;99.90
25570;DHT22;17955;45.542;9.238;2022-08-11T04:22:31;24.20;99.90
25570;DHT22;17955;45.542;9.238;2022-08-11T04:25:28;24.10;99.90
25570;DHT22;17955;45.542;9.238;2022-08-11T04:28:35;24.10;99.90
25570;DHT22;17955;45.542;9.238;2022-08-11T04:31:23;24.10;99.90
25570;DHT22;17955;45.542;9.238;2022-08-11T04:34:08;24.10;99.90
25570;DHT22;17955;45.542;9.238;2022-08-11T04:36:56;24.20;99.90
25570;DHT22;17955;45.542;9.238;2022-08-11T04:40:08;24.30;99.90
25570;DHT22;17955;45.542;9.238;2022-08-11T04:46:06;24.10;99.90
25570;DHT22;17955;45.542;9.238;2022-08-11T04:49:05;24.30;99.90
25570;DHT22;17955;45.542;9.238;2022-08-11T04:52:05;24.30;99.90
25570;DHT22;17955;45.542;9.238;2022-08-11T04:54:58;24.40;99.90
25570;DHT22;17955;45.542;9.238;2022-08-11T04:57:50;24.40;99.90
25570;DHT22;17955;45.542;9.238;2022-08-11T05:00:44;24.50;99.90
25570;DHT22;17955;45.542;9.238;2022-08-11T05:03:45;24.60;99.90
25570;DHT22;17955;45.542;9.238;2022-08-11T05:06:52;24.40;99.90
25570;DHT22;17955;45.542;9.238;2022-08-11T05:09:51;24.30;99.90
25570;DHT22;17955;45.542;9.238;2022-08-11T05:12:34;24.20;99.90
25570;DHT22;17955;45.542;9.238;2022-08-11T05:15:02;24.20;99.90
25570;DHT22;17955;45.542;9.238;2022-08-11T05:17:59;24.50;99.90
25570;DHT22;17955;45.542;9.238;2022-08-11T05:20:48;24.20;99.90
25570;DHT22;17955;45.542;9.238;2022-08-11T05:23:34;24.20;99.90
25570;DHT22;17955;45.542;9.238;2022-08-11T05:26:22;24.30;99.90
25570;DHT22;17955;45.542;9.238;2022-08-11T05:32:23;24.20;99.90
25570;DHT22;17955;45.542;9.238;2022-08-11T05:35:09;24.40;99.90
25570;DHT22;17955;45.542;9.238;2022-08-11T05:37:41;24.30;99.90
25570;DHT22;17955;45.542;9.238;2022-08-11T05:40:23;24.30;99.90
25570;DHT22;17955;45.542;9.238;2022-08-11T05:43:11;24.30;99.90
25570;DHT22;17955;45.542;9.238;2022-08-11T05:45:56;24.20;99.90
25570;DHT22;17955;45.542;9.238;2022-08-11T05:48:44;24.30;99.90
25570;DHT22;17955;45.542;9.238;2022-08-11T05:51:36;24.50;99.90
25570;DHT22;17955;45.542;9.238;2022-08-11T05:54:22;24.30;99.90
25570;DHT22;17955;45.542;9.238;2022-08-11T05:57:08;24.50;99.90
25570;DHT22;17955;45.542;9.238;2022-08-11T05:59:36;24.50;99.90
25570;DHT22;17955;45.542;9.238;2022-08-11T06:02:04;24.70;99.90
25570;DHT22;17955;45.542;9.238;2022-08-11T06:04:33;24.70;99.90
25570;DHT22;17955;45.542;9.238;2022-08-11T06:07:02;24.50;99.90
25570;DHT22;17955;45.542;9.238;2022-08-11T06:09:34;24.60;99.90
25570;DHT22;17955;45.542;9.238;2022-08-11T06:12:04;24.80;99.90
25570;DHT22;17955;45.542;9.238;2022-08-11T06:14:34;24.80;99.90
25570;DHT22;17955;45.542;9.238;2022-08-11T06:17:07;24.60;99.90
25570;DHT22;17955;45.542;9.238;2022-08-11T06:19:40;24.80;99.90
25570;DHT22;17955;45.542;9.238;2022-08-11T06:22:10;24.80;99.90
25570;DHT22;17955;45.542;9.238;2022-08-11T06:24:39;24.70;99.90
25570;DHT22;17955;45.542;9.238;2022-08-11T06:27:07;24.60;99.90
25570;DHT22;17955;45.542;9.238;2022-08-11T06:29:36;24.80;99.90
25570;DHT22;17955;45.542;9.238;2022-08-11T06:32:07;24.90;99.90
25570;DHT22;17955;45.542;9.238;2022-08-11T06:35:05;24.80;99.90
25570;DHT22;17955;45.542;9.238;2022-08-11T06:37:45;25.00;99.90
25570;DHT22;17955;45.542;9.238;2022-08-11T06:40:27;25.00;99.90
25570;DHT22;17955;45.542;9.238;2022-08-11T06:43:00;25.30;99.90
25570;DHT22;17955;45.542;9.238;2022-08-11T06:45:38;25.60;99.90
25570;DHT22;17955;45.542;9.238;2022-08-11T06:48:06;27.80;99.90
25570;DHT22;17955;45.542;9.238;2022-08-11T06:50:48;28.90;99.30
25570;DHT22;17955;45.542;9.238;2022-08-11T06:53:49;30.00;96.60
25570;DHT22;17955;45.542;9.238;2022-08-11T06:56:22;30.90;94.70
25570;DHT22;17955;45.542;9.238;2022-08-11T06:59:09;30.80;93.30
25570;DHT22;17955;45.542;9.238;2022-08-11T07:01:59;30.80;93.10
25570;DHT22;17955;45.542;9.238;2022-08-11T07:04:31;30.90;92.70
25570;DHT22;17955;45.542;9.238;2022-08-11T07:07:26;31.40;91.80
25570;DHT22;17955;45.542;9.238;2022-08-11T07:10:42;30.60;92.30
25570;DHT22;17955;45.542;9.238;2022-08-11T07:13:30;30.70;92.30
25570;DHT22;17955;45.542;9.238;2022-08-11T07:16:22;30.90;91.80
25570;DHT22;17955;45.542;9.238;2022-08-11T07:18:54;31.70;90.90
25570;DHT22;17955;45.542;9.238;2022-08-11T07:21:42;31.20;90.70
25570;DHT22;17955;45.542;9.238;2022-08-11T07:24:32;30.50;91.00
25570;DHT22;17955;45.542;9.238;2022-08-11T07:27:19;30.40;91.40
25570;DHT22;17955;45.542;9.238;2022-08-11T07:30:07;30.50;91.50
25570;DHT22;17955;45.542;9.238;2022-08-11T07:32:41;30.20;91.30
25570;DHT22;17955;45.542;9.238;2022-08-11T07:35:11;29.70;91.70
25570;DHT22;17955;45.542;9.238;2022-08-11T07:37:44;29.90;91.50
25570;DHT22;17955;45.542;9.238;2022-08-11T07:40:19;29.70;91.00
25570;DHT22;17955;45.542;9.238;2022-08-11T07:42:47;29.80;91.20
25570;DHT22;17955;45.542;9.238;2022-08-11T07:45:15;30.40;90.90
25570;DHT22;17955;45.542;9.238;2022-08-11T07:48:14;30.60;90.20
25570;DHT22;17955;45.542;9.238;2022-08-11T07:51:00;29.90;88.60
25570;DHT22;17955;45.542;9.238;2022-08-11T07:53:45;30.00;89.60
25570;DHT22;17955;45.542;9.238;2022-08-11T07:56:14;30.40;87.60
25570;DHT22;17955;45.542;9.238;2022-08-11T07:58:44;30.00;85.70
25570;DHT22;17955;45.542;9.238;2022-08-11T08:01:30;29.80;81.00
25570;DHT22;17955;45.542;9.238;2022-08-11T08:04:17;29.50;85.10
25570;DHT22;17955;45.542;9.238;2022-08-11T08:07:03;29.70;85.50
25570;DHT22;17955;45.542;9.238;2022-08-11T08:09:48;29.80;85.80
25570;DHT22;17955;45.542;9.238;2022-08-11T08:12:34;29.50;81.70
25570;DHT22;17955;45.542;9.238;2022-08-11T08:15:20;29.30;82.80
25570;DHT22;17955;45.542;9.238;2022-08-11T08:18:07;29.50;82.90
25570;DHT22;17955;45.542;9.238;2022-08-11T08:20:38;29.20;80.10
25570;DHT22;17955;45.542;9.238;2022-08-11T08:23:06;29.10;82.70
25570;DHT22;17955;45.542;9.238;2022-08-11T08:25:37;29.30;82.60
25570;DHT22;17955;45.542;9.238;2022-08-11T08:28:09;29.50;81.70
25570;DHT22;17955;45.542;9.238;2022-08-11T08:30:39;29.80;82.00
25570;DHT22;17955;45.542;9.238;2022-08-11T08:33:13;29.50;80.20
25570;DHT22;17955;45.542;9.238;2022-08-11T08:35:41;29.60;80.20
25570;DHT22;17955;45.542;9.238;2022-08-11T08:38:10;29.30;78.90
25570;DHT22;17955;45.542;9.238;2022-08-11T08:40:41;29.30;79.70
25570;DHT22;17955;45.542;9.238;2022-08-11T08:43:12;29.10;80.50
25570;DHT22;17955;45.542;9.238;2022-08-11T08:45:42;28.70;81.40
25570;DHT22;17955;45.542;9.238;2022-08-11T08:48:12;28.80;82.00
25570;DHT22;17955;45.542;9.238;2022-08-11T08:50:44;28.90;81.50
25570;DHT22;17955;45.542;9.238;2022-08-11T08:53:34;29.00;81.40
25570;DHT22;17955;45.542;9.238;2022-08-11T08:56:02;28.90;79.80
25570;DHT22;17955;45.542;9.238;2022-08-11T08:58:33;28.90;81.00
25570;DHT22;17955;45.542;9.238;2022-08-11T09:01:02;28.80;82.20
25570;DHT22;17955;45.542;9.238;2022-08-11T09:03:29;29.20;81.80
25570;DHT22;17955;45.542;9.238;2022-08-11T09:05:59;29.30;80.90
25570;DHT22;17955;45.542;9.238;2022-08-11T09:08:26;29.30;80.80
25570;DHT22;17955;45.542;9.238;2022-08-11T09:10:57;29.20;80.80
25570;DHT22;17955;45.542;9.238;2022-08-11T09:13:45;29.00;81.00
25570;DHT22;17955;45.542;9.238;2022-08-11T09:16:12;28.90;81.10
25570;DHT22;17955;45.542;9.238;2022-08-11T09:18:40;28.70;80.90
25570;DHT22;17955;45.542;9.238;2022-08-11T09:21:10;28.90;80.90
25570;DHT22;17955;45.542;9.238;2022-08-11T09:23:40;28.90;80.30
25570;DHT22;17955;45.542;9.238;2022-08-11T09:26:25;29.00;80.20
25570;DHT22;17955;45.542;9.238;2022-08-11T09:29:11;29.30;79.60
25570;DHT22;17955;45.542;9.238;2022-08-11T09:31:39;29.50;78.10
25570;DHT22;17955;45.542;9.238;2022-08-11T09:34:07;29.00;78.40
25570;DHT22;17955;45.542;9.238;2022-08-11T09:36:36;29.00;77.90
25570;DHT22;17955;45.542;9.238;2022-08-11T09:39:21;29.00;77.70
25570;DHT22;17955;45.542;9.238;2022-08-11T09:42:05;29.00;78.30
25570;DHT22;17955;45.542;9.238;2022-08-11T09:44:34;29.20;78.60
25570;DHT22;17955;45.542;9.238;2022-08-11T09:47:21;29.50;78.60
25570;DHT22;17955;45.542;9.238;2022-08-11T09:49:51;29.80;78.10
25570;DHT22;17955;45.542;9.238;2022-08-11T09:52:20;30.00;77.00
25570;DHT22;17955;45.542;9.238;2022-08-11T09:54:49;29.90;76.20
25570;DHT22;17955;45.542;9.238;2022-08-11T09:57:18;29.50;76.60
25570;DHT22;17955;45.542;9.238;2022-08-11T10:00:06;29.60;77.30
25570;DHT22;17955;45.542;9.238;2022-08-11T10:02:34;29.40;76.50
25570;DHT22;17955;45.542;9.238;2022-08-11T10:05:06;29.70;77.20
25570;DHT22;17955;45.542;9.238;2022-08-11T10:07:52;30.00;76.80
25570;DHT22;17955;45.542;9.238;2022-08-11T10:10:20;30.20;75.80
25570;DHT22;17955;45.542;9.238;2022-08-11T10:12:51;30.00;74.40
25570;DHT22;17955;45.542;9.238;2022-08-11T10:15:21;29.70;74.70
25570;DHT22;17955;45.542;9.238;2022-08-11T10:18:03;29.50;76.00
25570;DHT22;17955;45.542;9.238;2022-08-11T10:20:49;29.40;76.60
25570;DHT22;17955;45.542;9.238;2022-08-11T10:23:17;29.40;76.00
25570;DHT22;17955;45.542;9.238;2022-08-11T10:26:02;29.80;76.40
25570;DHT22;17955;45.542;9.238;2022-08-11T10:28:49;30.10;76.00
25570;DHT22;17955;45.542;9.238;2022-08-11T10:31:19;30.30;75.30
25570;DHT22;17955;45.542;9.238;2022-08-11T10:34:05;30.40;74.80
25570;DHT22;17955;45.542;9.238;2022-08-11T10:36:34;30.40;74.30
25570;DHT22;17955;45.542;9.238;2022-08-11T10:39:07;30.00;74.20
25570;DHT22;17955;45.542;9.238;2022-08-11T10:41:35;29.90;74.80
25570;DHT22;17955;45.542;9.238;2022-08-11T10:44:21;29.70;75.40
25570;DHT22;17955;45.542;9.238;2022-08-11T10:46:51;29.80;75.50
25570;DHT22;17955;45.542;9.238;2022-08-11T10:49:36;30.00;74.80
25570;DHT22;17955;45.542;9.238;2022-08-11T10:52:03;30.10;75.20
25570;DHT22;17955;45.542;9.238;2022-08-11T10:54:48;30.20;74.70
25570;DHT22;17955;45.542;9.238;2022-08-11T10:57:32;30.30;73.60
25570;DHT22;17955;45.542;9.238;2022-08-11T11:00:17;30.20;73.80
25570;DHT22;17955;45.542;9.238;2022-08-11T11:02:46;30.20;74.20
25570;DHT22;17955;45.542;9.238;2022-08-11T11:05:15;30.00;74.90
25570;DHT22;17955;45.542;9.238;2022-08-11T11:07:53;29.90;73.60
25570;DHT22;17955;45.542;9.238;2022-08-11T11:10:21;29.60;74.30
25570;DHT22;17955;45.542;9.238;2022-08-11T11:12:53;29.50;74.60
25570;DHT22;17955;45.542;9.238;2022-08-11T11:15:41;29.60;75.20
25570;DHT22;17955;45.542;9.238;2022-08-11T11:18:31;29.80;74.00
25570;DHT22;17955;45.542;9.238;2022-08-11T11:21:05;30.00;73.20
25570;DHT22;17955;45.542;9.238;2022-08-11T11:23:39;30.10;72.70
25570;DHT22;17955;45.542;9.238;2022-08-11T11:26:26;30.00;73.20
25570;DHT22;17955;45.542;9.238;2022-08-11T11:29:22;29.90;72.60
25570;DHT22;17955;45.542;9.238;2022-08-11T11:32:10;29.80;73.10
25570;DHT22;17955;45.542;9.238;2022-08-11T11:35:10;29.60;73.30
25570;DHT22;17955;45.542;9.238;2022-08-11T11:37:41;28.90;72.50
25570;DHT22;17955;45.542;9.238;2022-08-11T11:40:10;29.50;73.20
25570;DHT22;17955;45.542;9.238;2022-08-11T11:42:39;29.40;73.50
25570;DHT22;17955;45.542;9.238;2022-08-11T11:45:08;29.70;73.70
25570;DHT22;17955;45.542;9.238;2022-08-11T11:47:36;29.90;73.00
25570;DHT22;17955;45.542;9.238;2022-08-11T11:50:06;29.80;71.60
25570;DHT22;17955;45.542;9.238;2022-08-11T11:52:34;29.80;71.60
25570;DHT22;17955;45.542;9.238;2022-08-11T11:55:04;29.90;71.60
25570;DHT22;17955;45.542;9.238;2022-08-11T11:57:32;29.90;71.70
25570;DHT22;17955;45.542;9.238;2022-08-11T12:00:18;30.00;71.90
25570;DHT22;17955;45.542;9.238;2022-08-11T12:03:06;30.10;72.30
25570;DHT22;17955;45.542;9.238;2022-08-11T12:05:37;30.50;72.30
25570;DHT22;17955;45.542;9.238;2022-08-11T12:08:05;30.70;71.90
25570;DHT22;17955;45.542;9.238;2022-08-11T12:10:42;30.90;71.90
25570;DHT22;17955;45.542;9.238;2022-08-11T12:13:10;31.00;71.30
25570;DHT22;17955;45.542;9.238;2022-08-11T12:15:56;30.90;71.70
25570;DHT22;17955;45.542;9.238;2022-08-11T12:18:30;31.00;71.50
25570;DHT22;17955;45.542;9.238;2022-08-11T12:21:01;31.00;71.40
25570;DHT22;17955;45.542;9.238;2022-08-11T12:23:28;31.00;71.70
25570;DHT22;17955;45.542;9.238;2022-08-11T12:26:13;30.80;71.90
25570;DHT22;17955;45.542;9.238;2022-08-11T12:28:59;30.80;71.10
25570;DHT22;17955;45.542;9.238;2022-08-11T12:31:28;30.80;71.50
25570;DHT22;17955;45.542;9.238;2022-08-11T12:34:00;30.80;72.00
25570;DHT22;17955;45.542;9.238;2022-08-11T12:36:30;30.90;71.20
25570;DHT22;17955;45.542;9.238;2022-08-11T12:38:59;30.80;71.50
25570;DHT22;17955;45.542;9.238;2022-08-11T12:41:28;30.80;70.20
25570;DHT22;17955;45.542;9.238;2022-08-11T12:44:14;30.80;70.40
25570;DHT22;17955;45.542;9.238;2022-08-11T12:47:01;30.80;70.70
25570;DHT22;17955;45.542;9.238;2022-08-11T12:49:31;30.50;69.50
25570;DHT22;17955;45.542;9.238;2022-08-11T12:52:22;30.40;69.70
25570;DHT22;17955;45.542;9.238;2022-08-11T12:54:57;30.50;70.90
25570;DHT22;17955;45.542;9.238;2022-08-11T12:57:30;30.70;70.60
25570;DHT22;17955;45.542;9.238;2022-08-11T13:00:17;30.70;69.90
25570;DHT22;17955;45.542;9.238;2022-08-11T13:03:03;30.60;70.20
25570;DHT22;17955;45.542;9.238;2022-08-11T13:05:52;30.30;69.40
25570;DHT22;17955;45.542;9.238;2022-08-11T13:08:21;30.10;69.70
25570;DHT22;17955;45.542;9.238;2022-08-11T13:10:50;30.00;69.90
25570;DHT22;17955;45.542;9.238;2022-08-11T13:13:35;30.00;70.10
25570;DHT22;17955;45.542;9.238;2022-08-11T13:16:04;30.20;70.50
25570;DHT22;17955;45.542;9.238;2022-08-11T13:18:33;30.20;70.30
25570;DHT22;17955;45.542;9.238;2022-08-11T13:21:00;30.40;70.50
25570;DHT22;17955;45.542;9.238;2022-08-11T13:23:29;30.40;69.90
25570;DHT22;17955;45.542;9.238;2022-08-11T13:25:57;30.40;69.50
25570;DHT22;17955;45.542;9.238;2022-08-11T13:28:24;30.20;69.40
25570;DHT22;17955;45.542;9.238;2022-08-11T13:30:51;30.10;69.20
25570;DHT22;17955;45.542;9.238;2022-08-11T13:33:40;30.20;69.90
25570;DHT22;17955;45.542;9.238;2022-08-11T13:36:08;30.00;69.40
25570;DHT22;17955;45.542;9.238;2022-08-11T13:38:37;30.00;69.60
25570;DHT22;17955;45.542;9.238;2022-08-11T13:41:09;30.10;69.50
25570;DHT22;17955;45.542;9.238;2022-08-11T13:43:54;30.20;69.60
25570;DHT22;17955;45.542;9.238;2022-08-11T13:46:22;30.30;69.00
25570;DHT22;17955;45.542;9.238;2022-08-11T13:48:50;30.30;69.20
25570;DHT22;17955;45.542;9.238;2022-08-11T13:51:20;30.20;68.80
25570;DHT22;17955;45.542;9.238;2022-08-11T13:54:04;29.80;69.10
25570;DHT22;17955;45.542;9.238;2022-08-11T13:56:33;29.90;69.40
25570;DHT22;17955;45.542;9.238;2022-08-11T13:59:02;30.00;69.00
25570;DHT22;17955;45.542;9.238;2022-08-11T14:01:32;30.10;69.20
25570;DHT22;17955;45.542;9.238;2022-08-11T14:04:05;30.20;68.90
25570;DHT22;17955;45.542;9.238;2022-08-11T14:06:34;30.20;68.40
25570;DHT22;17955;45.542;9.238;2022-08-11T14:09:07;30.10;68.20
25570;DHT22;17955;45.542;9.238;2022-08-11T14:11:35;30.00;68.70
25570;DHT22;17955;45.542;9.238;2022-08-11T14:14:24;30.20;68.90
25570;DHT22;17955;45.542;9.238;2022-08-11T14:16:54;30.20;69.40
25570;DHT22;17955;45.542;9.238;2022-08-11T14:19:25;30.10;69.10
25570;DHT22;17955;45.542;9.238;2022-08-11T14:21:53;30.20;69.00
25570;DHT22;17955;45.542;9.238;2022-08-11T14:24:36;30.00;69.00
25570;DHT22;17955;45.542;9.238;2022-08-11T14:27:04;29.90;69.00
25570;DHT22;17955;45.542;9.238;2022-08-11T14:29:32;29.90;69.50
25570;DHT22;17955;45.542;9.238;2022-08-11T14:32:05;30.00;69.40
25570;DHT22;17955;45.542;9.238;2022-08-11T14:34:33;30.00;69.00
25570;DHT22;17955;45.542;9.238;2022-08-11T14:37:03;30.10;69.30
25570;DHT22;17955;45.542;9.238;2022-08-11T14:39:37;30.10;68.80
25570;DHT22;17955;45.542;9.238;2022-08-11T14:42:06;30.00;68.50
25570;DHT22;17955;45.542;9.238;2022-08-11T14:44:56;30.10;69.00
25570;DHT22;17955;45.542;9.238;2022-08-11T14:47:51;30.00;68.70
25570;DHT22;17955;45.542;9.238;2022-08-11T14:50:21;30.20;68.50
25570;DHT22;17955;45.542;9.238;2022-08-11T14:52:50;30.10;68.40
25570;DHT22;17955;45.542;9.238;2022-08-11T14:55:22;30.20;68.70
25570;DHT22;17955;45.542;9.238;2022-08-11T14:58:08;30.30;68.70
25570;DHT22;17955;45.542;9.238;2022-08-11T15:00:36;30.40;68.80
25570;DHT22;17955;45.542;9.238;2022-08-11T15:03:05;30.50;68.60
25570;DHT22;17955;45.542;9.238;2022-08-11T15:05:36;30.50;68.40
25570;DHT22;17955;45.542;9.238;2022-08-11T15:08:05;30.50;67.80
25570;DHT22;17955;45.542;9.238;2022-08-11T15:10:34;30.50;67.60
25570;DHT22;17955;45.542;9.238;2022-08-11T15:13:02;30.40;67.00
25570;DHT22;17955;45.542;9.238;2022-08-11T15:15:30;30.20;67.50
25570;DHT22;17955;45.542;9.238;2022-08-11T15:18:17;30.00;67.70
25570;DHT22;17955;45.542;9.238;2022-08-11T15:20:45;30.10;68.20
25570;DHT22;17955;45.542;9.238;2022-08-11T15:23:30;30.20;67.70
25570;DHT22;17955;45.542;9.238;2022-08-11T15:26:19;30.20;67.10
25570;DHT22;17955;45.542;9.238;2022-08-11T15:29:09;30.20;67.50
25570;DHT22;17955;45.542;9.238;2022-08-11T15:31:54;30.30;67.80
25570;DHT22;17955;45.542;9.238;2022-08-11T15:34:40;30.30;67.30
25570;DHT22;17955;45.542;9.238;2022-08-11T15:37:26;30.40;67.40
25570;DHT22;17955;45.542;9.238;2022-08-11T15:40:02;30.30;67.30
25570;DHT22;17955;45.542;9.238;2022-08-11T15:43:00;30.00;67.10
25570;DHT22;17955;45.542;9.238;2022-08-11T15:45:49;30.10;67.80
25570;DHT22;17955;45.542;9.238;2022-08-11T15:48:26;30.00;67.70
25570;DHT22;17955;45.542;9.238;2022-08-11T15:50:56;30.00;67.50
25570;DHT22;17955;45.542;9.238;2022-08-11T15:53:32;30.10;67.50
25570;DHT22;17955;45.542;9.238;2022-08-11T15:56:00;30.10;67.80
25570;DHT22;17955;45.542;9.238;2022-08-11T15:58:32;30.00;68.20
25570;DHT22;17955;45.542;9.238;2022-08-11T16:01:20;30.00;68.30
25570;DHT22;17955;45.542;9.238;2022-08-11T16:04:10;30.10;68.30
25570;DHT22;17955;45.542;9.238;2022-08-11T16:06:48;30.00;68.30
25570;DHT22;17955;45.542;9.238;2022-08-11T16:09:30;29.90;67.70
25570;DHT22;17955;45.542;9.238;2022-08-11T16:12:02;29.90;68.00
25570;DHT22;17955;45.542;9.238;2022-08-11T16:14:34;30.00;68.20
25570;DHT22;17955;45.542;9.238;2022-08-11T16:17:35;30.00;68.20
25570;DHT22;17955;45.542;9.238;2022-08-11T16:20:07;30.00;68.80
25570;DHT22;17955;45.542;9.238;2022-08-11T16:22:36;30.10;68.40
25570;DHT22;17955;45.542;9.238;2022-08-11T16:25:13;30.10;68.20
25570;DHT22;17955;45.542;9.238;2022-08-11T16:27:58;30.10;69.00
25570;DHT22;17955;45.542;9.238;2022-08-11T16:30:28;30.00;68.20
25570;DHT22;17955;45.542;9.238;2022-08-11T16:32:57;29.90;68.50
25570;DHT22;17955;45.542;9.238;2022-08-11T16:35:26;29.80;68.50
25570;DHT22;17955;45.542;9.238;2022-08-11T16:38:27;29.90;68.40
25570;DHT22;17955;45.542;9.238;2022-08-11T16:41:09;29.90;68.30
25570;DHT22;17955;45.542;9.238;2022-08-11T16:43:42;29.70;68.30
25570;DHT22;17955;45.542;9.238;2022-08-11T16:46:30;29.70;68.20
25570;DHT22;17955;45.542;9.238;2022-08-11T16:49:27;29.80;68.50
25570;DHT22;17955;45.542;9.238;2022-08-11T16:51:56;29.80;68.50
25570;DHT22;17955;45.542;9.238;2022-08-11T16:54:26;29.90;68.50
25570;DHT22;17955;45.542;9.238;2022-08-11T16:56:54;29.80;67.90
25570;DHT22;17955;45.542;9.238;2022-08-11T16:59:43;29.90;68.10
25570;DHT22;17955;45.542;9.238;2022-08-11T17:02:14;29.80;68.70
25570;DHT22;17955;45.542;9.238;2022-08-11T17:05:08;29.70;68.10
25570;DHT22;17955;45.542;9.238;2022-08-11T17:07:55;29.60;67.60
25570;DHT22;17955;45.542;9.238;2022-08-11T17:10:43;29.60;67.80
25570;DHT22;17955;45.542;9.238;2022-08-11T17:13:41;29.40;67.70
25570;DHT22;17955;45.542;9.238;2022-08-11T17:16:10;29.50;67.80